createdAt,value
2022-11-04T00:00:58.480Z,19.00
2022-11-04T00:03:32.527Z,19.47
2022-11-04T00:06:09.108Z,19.20
2022-11-04T00:08:43.475Z,20.13
2022-11-04T00:11:33.203Z,20.40
2022-11-04T00:14:07.821Z,19.67
2022-11-04T00:16:57.825Z,19.27
2022-11-04T00:19:51.757Z,19.53
2022-11-04T00:22:43.557Z,19.87
2022-11-04T00:25:33.395Z,19.60
2022-11-04T00:28:30.246Z,19.93
2022-11-04T00:31:25.590Z,19.43
2022-11-04T00:33:59.967Z,19.90
2022-11-04T00:36:34.437Z,20.17
2022-11-04T00:39:11.085Z,19.97
2022-11-04T00:41:44.478Z,20.37
2022-11-04T00:44:18.199Z,20.53
2022-11-04T00:46:51.362Z,20.50
2022-11-04T00:49:24.427Z,19.73
2022-11-04T00:51:58.222Z,21.10
2022-11-04T00:54:34.081Z,20.17
2022-11-04T00:57:07.962Z,20.57
2022-11-04T00:59:42.668Z,20.10
2022-11-04T01:02:17.488Z,21.10
2022-11-04T01:04:53.355Z,21.03
2022-11-04T01:07:27.058Z,20.97
2022-11-04T01:10:03.503Z,23.30
2022-11-04T01:12:38.333Z,23.13
2022-11-04T01:15:12.459Z,23.07
2022-11-04T01:17:48.410Z,22.13
2022-11-04T01:20:23.538Z,22.13
2022-11-04T01:22:57.847Z,23.57
2022-11-04T01:25:33.629Z,22.83
2022-11-04T01:28:07.617Z,22.67
2022-11-04T01:30:43.374Z,22.57
2022-11-04T01:33:18.750Z,23.43
2022-11-04T01:35:52.093Z,23.80
2022-11-04T01:38:26.371Z,23.73
2022-11-04T01:41:03.328Z,22.53
2022-11-04T01:43:52.867Z,24.27
2022-11-04T01:46:37.910Z,24.63
2022-11-04T01:49:30.000Z,24.37
2022-11-04T01:52:09.873Z,25.30
2022-11-04T01:54:45.805Z,24.53
2022-11-04T01:57:26.029Z,24.70
2022-11-04T02:00:02.492Z,23.77
2022-11-04T02:03:07.776Z,23.57
2022-11-04T02:09:27.943Z,26.70
2022-11-04T02:12:18.322Z,26.90
2022-11-04T02:14:55.563Z,26.00
2022-11-04T02:17:42.869Z,25.40
2022-11-04T02:20:36.680Z,26.93
2022-11-04T02:23:55.826Z,27.13
2022-11-04T02:26:53.396Z,27.50
2022-11-04T02:30:01.009Z,27.37
2022-11-04T02:32:48.480Z,30.70
2022-11-04T02:35:30.692Z,31.00
2022-11-04T02:38:15.073Z,29.60
2022-11-04T02:41:01.561Z,29.20
2022-11-04T02:43:41.505Z,29.77
2022-11-04T02:46:24.811Z,29.10
2022-11-04T02:49:03.668Z,29.77
2022-11-04T02:51:42.472Z,29.73
2022-11-04T02:54:22.783Z,30.73
2022-11-04T02:56:59.551Z,29.23
2022-11-04T02:59:55.837Z,28.93
2022-11-04T03:02:37.609Z,28.80
2022-11-04T03:05:15.291Z,29.93
2022-11-04T03:07:50.878Z,29.97
2022-11-04T03:10:27.797Z,30.17
2022-11-04T03:13:22.298Z,29.13
2022-11-04T03:15:59.191Z,30.60
2022-11-04T03:18:42.445Z,30.57
2022-11-04T03:21:19.000Z,29.73
2022-11-04T03:23:52.778Z,29.43
2022-11-04T03:26:30.563Z,29.67
2022-11-04T03:29:16.286Z,30.27
2022-11-04T03:31:55.063Z,30.53
2022-11-04T03:34:31.705Z,30.80
2022-11-04T03:37:07.696Z,30.23
2022-11-04T03:39:42.155Z,29.80
2022-11-04T03:42:24.939Z,29.90
2022-11-04T03:45:01.425Z,30.97
2022-11-04T03:47:36.979Z,30.80
2022-11-04T03:50:17.198Z,32.63
2022-11-04T03:52:51.712Z,32.63
2022-11-04T03:55:26.359Z,31.50
2022-11-04T03:58:06.949Z,31.87
2022-11-04T04:00:47.391Z,32.70
2022-11-04T04:03:25.926Z,34.13
2022-11-04T04:06:06.755Z,35.07
2022-11-04T04:08:46.111Z,33.77
2022-11-04T04:11:24.935Z,34.90
2022-11-04T04:14:06.015Z,35.27
2022-11-04T04:16:43.381Z,34.10
2022-11-04T04:19:20.787Z,33.87
2022-11-04T04:22:02.363Z,34.00
2022-11-04T04:24:56.741Z,34.73
2022-11-04T04:27:35.984Z,35.30
2022-11-04T04:30:13.443Z,33.93
2022-11-04T04:32:51.831Z,33.10
2022-11-04T04:35:47.492Z,35.67
2022-11-04T04:38:42.743Z,36.67
2022-11-04T04:41:36.870Z,35.43
2022-11-04T04:44:33.378Z,34.53
2022-11-04T04:47:10.288Z,36.23
2022-11-04T04:49:54.982Z,34.93
2022-11-04T04:52:30.878Z,36.13
2022-11-04T04:55:06.111Z,36.47
2022-11-04T04:57:41.479Z,36.50
2022-11-04T05:00:20.551Z,35.77
2022-11-04T05:02:54.599Z,38.17
2022-11-04T05:05:28.549Z,35.80
2022-11-04T05:08:10.390Z,36.97
2022-11-04T05:10:47.490Z,39.60
2022-11-04T05:13:32.650Z,36.13
2022-11-04T05:16:12.016Z,36.93
2022-11-04T05:18:46.357Z,37.87
2022-11-04T05:21:20.813Z,37.73
2022-11-04T05:23:55.232Z,36.40
2022-11-04T05:26:32.495Z,36.70
2022-11-04T05:29:06.697Z,37.90
2022-11-04T05:31:40.886Z,37.50
2022-11-04T05:34:16.424Z,37.73
2022-11-04T05:36:51.210Z,37.80
2022-11-04T05:39:26.051Z,38.20
2022-11-04T05:42:02.774Z,37.27
2022-11-04T05:44:37.879Z,38.97
2022-11-04T05:47:11.708Z,38.60
2022-11-04T05:49:46.702Z,38.97
2022-11-04T05:52:21.074Z,40.97
2022-11-04T05:54:55.895Z,41.57
2022-11-04T05:57:32.803Z,39.17
2022-11-04T06:00:06.622Z,41.57
2022-11-04T06:02:41.125Z,42.83
2022-11-04T06:05:15.790Z,41.83
2022-11-04T06:07:49.888Z,41.17
2022-11-04T06:10:24.653Z,40.80
2022-11-04T06:13:01.692Z,40.70
2022-11-04T06:15:37.137Z,38.80
2022-11-04T06:18:11.596Z,40.00
2022-11-04T06:20:45.150Z,39.37
2022-11-04T06:23:20.705Z,39.50
2022-11-04T06:25:59.570Z,40.03
2022-11-04T06:28:36.082Z,39.37
2022-11-04T06:31:11.770Z,40.27
2022-11-04T06:33:45.922Z,37.43
2022-11-04T06:36:20.594Z,36.13
2022-11-04T06:38:59.937Z,38.57
2022-11-04T06:41:37.172Z,39.53
2022-11-04T06:44:13.751Z,39.37
2022-11-04T06:46:49.157Z,38.27
2022-11-04T06:49:25.148Z,39.77
2022-11-04T06:51:58.913Z,39.83
2022-11-04T06:54:34.059Z,40.10
2022-11-04T06:57:09.466Z,39.20
2022-11-04T06:59:46.591Z,36.17
2022-11-04T07:02:20.624Z,34.40
2022-11-04T07:04:55.499Z,34.00
2022-11-04T07:07:30.646Z,33.13
2022-11-04T07:10:04.932Z,34.90
2022-11-04T07:12:39.342Z,32.53
2022-11-04T07:15:16.421Z,33.53
2022-11-04T07:17:51.240Z,33.27
2022-11-04T07:20:25.592Z,33.83
2022-11-04T07:23:02.148Z,31.20
2022-11-04T07:25:35.934Z,31.57
2022-11-04T07:28:09.808Z,32.37
2022-11-04T07:30:46.458Z,33.00
2022-11-04T07:33:21.128Z,33.77
2022-11-04T07:35:57.131Z,32.00
2022-11-04T07:38:32.951Z,30.93
2022-11-04T07:41:07.864Z,35.93
2022-11-04T07:43:43.066Z,35.13
2022-11-04T07:46:19.263Z,35.73
2022-11-04T07:48:54.214Z,36.37
2022-11-04T07:51:29.401Z,36.67
2022-11-04T07:54:04.326Z,36.13
2022-11-04T07:56:38.845Z,36.43
2022-11-04T07:59:14.194Z,33.67
2022-11-04T08:01:51.654Z,34.40
2022-11-04T08:04:25.776Z,32.93
2022-11-04T08:07:00.811Z,32.33
2022-11-04T08:09:34.499Z,34.10
2022-11-04T08:12:08.528Z,34.70
2022-11-04T08:14:43.831Z,33.67
2022-11-04T08:17:19.391Z,32.53
2022-11-04T08:19:53.481Z,32.53
2022-11-04T08:22:31.811Z,31.83
2022-11-04T08:25:28.719Z,29.57
2022-11-04T08:31:00.050Z,27.93
2022-11-04T08:33:47.685Z,28.40
2022-11-04T08:36:24.101Z,30.43
2022-11-04T08:38:58.387Z,29.70
2022-11-04T08:41:34.029Z,30.27
2022-11-04T08:44:08.337Z,30.87
2022-11-04T08:46:45.256Z,30.67
2022-11-04T08:52:12.284Z,31.73
2022-11-04T08:54:49.680Z,30.87
2022-11-04T08:57:26.240Z,32.40
2022-11-04T08:59:59.679Z,30.63
2022-11-04T09:02:33.389Z,31.47
2022-11-04T09:05:09.435Z,33.30
2022-11-04T09:07:43.422Z,31.80
2022-11-04T09:10:17.657Z,32.83
2022-11-04T09:12:51.153Z,33.30
2022-11-04T09:15:25.972Z,31.13
2022-11-04T09:18:01.204Z,32.87
2022-11-04T09:20:40.030Z,32.60
2022-11-04T09:23:15.692Z,32.93
2022-11-04T09:25:49.510Z,32.97
2022-11-04T09:28:23.501Z,32.07
2022-11-04T09:30:58.735Z,31.90
2022-11-04T09:33:32.650Z,31.53
2022-11-04T09:36:09.553Z,32.27
2022-11-04T09:38:43.312Z,31.53
2022-11-04T09:41:42.447Z,33.00
2022-11-04T09:44:29.343Z,29.53
2022-11-04T09:47:05.694Z,31.23
2022-11-04T09:49:44.000Z,31.70
2022-11-04T09:52:25.677Z,32.20
2022-11-04T09:55:03.869Z,31.20
2022-11-04T09:57:38.684Z,31.63
2022-11-04T10:00:21.691Z,30.27
2022-11-04T10:03:06.616Z,31.23
2022-11-04T10:05:55.639Z,32.03
2022-11-04T10:09:00.529Z,29.87
2022-11-04T10:11:42.249Z,30.73
2022-11-04T10:14:43.297Z,31.70
2022-11-04T10:17:35.978Z,32.30
2022-11-04T10:20:25.607Z,31.33
2022-11-04T10:23:03.518Z,31.27
2022-11-04T10:25:47.720Z,33.67
2022-11-04T10:28:23.834Z,33.23
2022-11-04T10:30:58.743Z,30.33
2022-11-04T10:33:38.292Z,30.90
2022-11-04T10:36:16.718Z,31.80
2022-11-04T10:38:56.832Z,30.63
2022-11-04T10:41:38.416Z,30.37
2022-11-04T10:44:19.574Z,27.93
2022-11-04T10:47:02.930Z,27.90
2022-11-04T10:52:53.758Z,26.00
2022-11-04T10:55:37.134Z,26.70
2022-11-04T10:58:19.801Z,26.43
2022-11-04T11:00:55.953Z,27.33
2022-11-04T11:03:35.909Z,27.57
2022-11-04T11:06:29.347Z,26.13
2022-11-04T11:09:16.024Z,27.40
2022-11-04T11:11:53.128Z,25.37
2022-11-04T11:14:38.774Z,26.10
2022-11-04T11:17:29.787Z,28.23
2022-11-04T11:20:06.912Z,25.50
2022-11-04T11:22:43.187Z,24.87
2022-11-04T11:25:29.306Z,25.63
2022-11-04T11:28:05.319Z,26.00
2022-11-04T11:30:58.416Z,26.87
2022-11-04T11:33:35.221Z,25.80
2022-11-04T11:36:14.078Z,26.33
2022-11-04T11:39:01.775Z,25.30
2022-11-04T11:41:43.533Z,24.80
2022-11-04T11:44:29.932Z,25.53
2022-11-04T11:47:07.884Z,26.00
2022-11-04T11:49:42.538Z,25.87
2022-11-04T11:52:38.151Z,25.97
2022-11-04T11:55:17.368Z,25.53
2022-11-04T12:01:10.105Z,28.83
2022-11-04T12:10:00.093Z,27.53
2022-11-04T12:12:54.543Z,27.23
2022-11-04T12:15:49.634Z,28.57
2022-11-04T12:18:38.344Z,35.47
2022-11-04T12:21:21.194Z,46.77
2022-11-04T12:24:02.355Z,46.53
2022-11-04T12:26:44.781Z,42.80
2022-11-04T12:29:38.462Z,40.23
2022-11-04T12:32:24.004Z,36.37
2022-11-04T12:35:11.381Z,34.27
2022-11-04T12:38:07.906Z,30.33
2022-11-04T12:41:05.079Z,33.80
2022-11-04T12:43:49.618Z,30.37
2022-11-04T12:46:32.859Z,29.07
2022-11-04T12:49:39.921Z,27.63
2022-11-04T12:52:22.560Z,26.77
2022-11-04T12:55:10.208Z,27.80
2022-11-04T12:57:51.159Z,26.37
2022-11-04T13:00:29.877Z,26.43
2022-11-04T13:03:09.782Z,25.83
2022-11-04T13:05:52.411Z,28.90
2022-11-04T13:08:35.311Z,30.27
2022-11-04T13:11:27.161Z,29.60
2022-11-04T13:14:07.945Z,29.83
2022-11-04T13:16:46.272Z,28.57
2022-11-04T13:19:30.844Z,29.23
2022-11-04T13:22:12.063Z,29.27
2022-11-04T13:24:56.609Z,30.07
2022-11-04T13:27:39.635Z,29.53
2022-11-04T13:30:24.683Z,29.80
2022-11-04T13:33:04.541Z,31.83
2022-11-04T13:35:50.525Z,31.40
2022-11-04T13:38:29.916Z,30.57
2022-11-04T13:41:21.822Z,30.57
2022-11-04T13:44:01.583Z,31.23
2022-11-04T13:46:38.778Z,31.23
2022-11-04T13:49:32.644Z,31.10
2022-11-04T13:52:12.671Z,32.00
2022-11-04T13:54:50.272Z,30.90
2022-11-04T13:57:26.386Z,30.67
2022-11-04T14:00:29.371Z,31.57
2022-11-04T14:03:05.017Z,32.57
2022-11-04T14:06:06.433Z,31.10
2022-11-04T14:08:41.554Z,31.97
2022-11-04T14:11:18.680Z,32.33
2022-11-04T14:14:08.377Z,32.10
2022-11-04T14:16:51.044Z,33.70
2022-11-04T14:20:13.105Z,31.07
2022-11-04T14:22:59.182Z,31.70
2022-11-04T14:25:41.036Z,33.10
2022-11-04T14:28:34.338Z,32.87
2022-11-04T14:31:17.104Z,33.93
2022-11-04T14:34:03.240Z,33.10
2022-11-04T14:36:46.540Z,35.13
2022-11-04T14:39:32.100Z,32.27
2022-11-04T14:42:09.682Z,33.97
2022-11-04T14:44:51.127Z,36.10
2022-11-04T14:47:30.917Z,34.90
2022-11-04T14:50:13.845Z,36.17
2022-11-04T14:52:55.204Z,34.80
2022-11-04T14:55:33.489Z,35.43
2022-11-04T14:58:29.442Z,34.77
2022-11-04T15:01:07.220Z,35.60
2022-11-04T15:04:10.950Z,35.27
2022-11-04T15:06:57.687Z,35.20
2022-11-04T15:09:36.144Z,35.33
2022-11-04T15:12:31.725Z,36.20
2022-11-04T15:15:07.767Z,37.43
2022-11-04T15:17:43.014Z,37.07
2022-11-04T15:20:30.795Z,35.00
2022-11-04T15:23:11.564Z,39.07
2022-11-04T15:25:54.071Z,36.80
2022-11-04T15:28:30.687Z,36.93
2022-11-04T15:31:22.407Z,37.60
2022-11-04T15:34:00.244Z,38.67
2022-11-04T15:36:40.743Z,38.70
2022-11-04T15:39:19.483Z,38.13
2022-11-04T15:42:12.395Z,36.67
2022-11-04T15:44:52.141Z,38.47
2022-11-04T15:47:31.517Z,38.37
2022-11-04T15:50:20.960Z,38.23
2022-11-04T15:53:01.811Z,40.87
2022-11-04T15:55:44.340Z,42.13
2022-11-04T15:58:20.464Z,41.70
2022-11-04T16:01:07.037Z,41.87
2022-11-04T16:03:41.574Z,42.13
2022-11-04T16:06:16.339Z,42.17
2022-11-04T16:09:10.224Z,46.33
2022-11-04T16:12:06.752Z,44.23
2022-11-04T16:14:41.056Z,44.67
2022-11-04T16:17:17.206Z,44.83
2022-11-04T16:19:53.830Z,45.23
2022-11-04T16:22:32.732Z,46.77
2022-11-04T16:25:09.077Z,47.20
2022-11-04T16:27:46.144Z,47.37
2022-11-04T16:30:25.387Z,48.13
2022-11-04T16:36:01.066Z,47.10
2022-11-04T16:38:36.081Z,46.27
2022-11-04T16:41:13.356Z,46.80
2022-11-04T16:43:48.932Z,45.30
2022-11-04T16:46:23.362Z,44.73
2022-11-04T16:48:58.563Z,44.27
2022-11-04T16:51:33.479Z,46.87
2022-11-04T16:54:08.385Z,46.73
2022-11-04T16:56:42.478Z,43.47
2022-11-04T16:59:19.121Z,45.43
2022-11-04T17:01:54.266Z,43.60
2022-11-04T17:04:28.078Z,43.97
2022-11-04T17:07:03.103Z,43.20
2022-11-04T17:09:37.353Z,44.67
2022-11-04T17:12:11.223Z,44.53
2022-11-04T17:14:45.981Z,44.73
2022-11-04T17:17:20.310Z,44.37
2022-11-04T17:19:54.461Z,44.67
2022-11-04T17:22:29.479Z,44.03
2022-11-04T17:25:03.656Z,44.60
2022-11-04T17:27:38.206Z,43.87
2022-11-04T17:30:18.178Z,44.53
2022-11-04T17:32:53.789Z,45.13
2022-11-04T17:35:27.493Z,45.67
2022-11-04T17:38:02.153Z,43.63
2022-11-04T17:40:56.668Z,46.23
2022-11-04T17:44:02.046Z,48.43
2022-11-04T17:46:40.062Z,47.10
2022-11-04T17:49:18.602Z,47.20
2022-11-04T17:51:54.937Z,47.23
2022-11-04T17:54:31.559Z,46.97
2022-11-04T17:57:05.928Z,46.50
2022-11-04T17:59:40.992Z,47.17
2022-11-04T18:02:17.890Z,46.83
2022-11-04T18:04:52.257Z,46.30
2022-11-04T18:07:27.796Z,46.53
2022-11-04T18:10:02.984Z,47.43
2022-11-04T18:12:43.821Z,47.00
2022-11-04T18:15:20.496Z,47.57
2022-11-04T18:17:56.412Z,46.27
2022-11-04T18:20:30.120Z,47.73
2022-11-04T18:23:04.251Z,48.90
2022-11-04T18:25:38.792Z,47.83
2022-11-04T18:28:13.782Z,47.93
2022-11-04T18:30:48.791Z,47.60
2022-11-04T18:33:25.635Z,48.53
2022-11-04T18:35:59.227Z,49.73
2022-11-04T18:38:33.120Z,48.27
2022-11-04T18:41:07.113Z,49.10
2022-11-04T18:43:41.858Z,48.33
2022-11-04T18:46:16.826Z,50.33
2022-11-04T18:48:58.555Z,51.87
2022-11-04T18:51:32.022Z,49.80
2022-11-04T18:54:09.952Z,48.33
2022-11-04T18:56:45.071Z,49.23
2022-11-04T18:59:20.130Z,48.67
2022-11-04T19:01:54.695Z,49.13
2022-11-04T19:04:30.287Z,47.77
2022-11-04T19:07:05.159Z,48.57
2022-11-04T19:09:47.193Z,49.93
2022-11-04T19:12:41.060Z,51.27
2022-11-04T19:15:15.664Z,49.57
2022-11-04T19:17:49.557Z,50.67
2022-11-04T19:20:25.387Z,49.60
2022-11-04T19:22:59.981Z,49.87
2022-11-04T19:25:34.008Z,47.80
2022-11-04T19:28:32.678Z,48.93
2022-11-04T19:31:06.891Z,49.80
2022-11-04T19:33:41.764Z,50.93
2022-11-04T19:36:19.764Z,51.23
2022-11-04T19:38:58.496Z,51.00
2022-11-04T19:41:49.075Z,50.53
2022-11-04T19:44:24.706Z,50.90
2022-11-04T19:46:59.550Z,50.23
2022-11-04T19:49:33.951Z,49.93
2022-11-04T19:52:11.493Z,50.20
2022-11-04T19:54:46.356Z,51.20
2022-11-04T19:57:21.580Z,51.40
2022-11-04T19:59:57.461Z,50.87
2022-11-04T20:02:31.386Z,51.03
2022-11-04T20:05:05.456Z,51.47
2022-11-04T20:07:40.904Z,53.57
2022-11-04T20:10:16.567Z,52.30
2022-11-04T20:13:06.151Z,52.80
2022-11-04T20:15:40.053Z,53.80
2022-11-04T20:18:13.755Z,53.87
2022-11-04T20:20:48.878Z,53.33
2022-11-04T20:23:25.036Z,53.23
2022-11-04T20:25:58.498Z,52.70
2022-11-04T20:28:35.433Z,52.23
2022-11-04T20:31:15.533Z,52.30
2022-11-04T20:33:49.766Z,50.07
2022-11-04T20:36:27.700Z,50.20
2022-11-04T20:39:05.432Z,51.50
2022-11-04T20:41:39.775Z,50.23
2022-11-04T20:44:15.845Z,51.07
2022-11-04T20:46:50.514Z,50.67
2022-11-04T20:49:24.944Z,51.73
2022-11-04T20:51:58.802Z,51.70
2022-11-04T20:54:35.188Z,51.33
2022-11-04T20:57:09.020Z,52.27
2022-11-04T20:59:43.015Z,51.23
2022-11-04T21:02:17.469Z,51.80
2022-11-04T21:04:52.184Z,54.53
2022-11-04T21:07:26.971Z,53.70
2022-11-04T21:10:02.944Z,54.77
2022-11-04T21:12:38.140Z,57.63
2022-11-04T21:15:32.595Z,54.73
2022-11-04T21:18:07.581Z,59.33
2022-11-04T21:20:43.119Z,59.20
2022-11-04T21:23:18.421Z,61.90
2022-11-04T21:25:58.475Z,62.97
2022-11-04T21:28:32.402Z,63.27
2022-11-04T21:31:09.801Z,61.67
2022-11-04T21:34:18.979Z,61.60
2022-11-04T21:36:57.631Z,60.63
2022-11-04T21:39:32.185Z,61.07
2022-11-04T21:42:08.198Z,61.07
2022-11-04T21:44:42.235Z,61.60
2022-11-04T21:47:16.296Z,60.27
2022-11-04T21:49:51.640Z,55.57
2022-11-04T21:52:25.556Z,55.33
2022-11-04T21:54:59.616Z,52.63
2022-11-04T21:57:36.464Z,53.93
2022-11-04T22:00:12.320Z,53.03
2022-11-04T22:02:48.589Z,54.53
2022-11-04T22:05:22.831Z,54.63
2022-11-04T22:08:12.380Z,53.90
2022-11-04T22:10:46.985Z,53.43
2022-11-04T22:13:23.172Z,52.53
2022-11-04T22:16:03.989Z,51.27
2022-11-04T22:18:37.956Z,51.60
2022-11-04T22:21:14.706Z,51.73
2022-11-04T22:23:49.172Z,52.10
2022-11-04T22:26:25.885Z,50.77
2022-11-04T22:29:02.696Z,47.73
2022-11-04T22:31:38.063Z,48.83
2022-11-04T22:34:12.350Z,49.80
2022-11-04T22:36:46.783Z,48.43
2022-11-04T22:39:21.345Z,48.50
2022-11-04T22:41:54.646Z,50.07
2022-11-04T22:44:31.077Z,49.33
2022-11-04T22:47:05.345Z,48.20
2022-11-04T22:49:40.086Z,48.60
2022-11-04T22:52:15.059Z,49.47
2022-11-04T22:54:49.963Z,49.43
2022-11-04T22:57:24.736Z,49.80
2022-11-04T23:00:00.936Z,48.27
2022-11-04T23:02:37.067Z,49.90
2022-11-04T23:05:11.671Z,49.87
2022-11-04T23:07:46.748Z,49.93
2022-11-04T23:10:36.321Z,49.27
2022-11-04T23:13:25.668Z,48.97
2022-11-04T23:16:18.373Z,47.60
2022-11-04T23:18:55.462Z,46.77
2022-11-04T23:21:45.378Z,46.97
2022-11-04T23:24:35.072Z,48.03
2022-11-04T23:27:09.661Z,48.03
2022-11-04T23:29:58.989Z,47.47
2022-11-04T23:32:34.751Z,48.20
2022-11-04T23:35:24.706Z,49.27
2022-11-04T23:38:02.499Z,48.57
2022-11-04T23:40:37.087Z,47.17
2022-11-04T23:43:09.577Z,48.30
2022-11-04T23:45:59.877Z,48.20
2022-11-04T23:48:50.995Z,48.20
2022-11-04T23:51:41.397Z,47.27
2022-11-04T23:54:31.056Z,48.93
2022-11-04T23:57:20.561Z,48.37
